Time;durP1;ratioP1;P1;durP2;ratioP2;P2;SDS_P1;SDS_P2;PMS_P1;PMS_P2;Temp;Humidity;BMP_temperature;BMP_pressure;BME280_temperature;BME280_humidity;BME280_pressure;Samples;Min_cycle;Max_cycle;Signal;HPM_P1;HPM_P2
2024/01/07 00:00:15;;;;;;;2.95;2.75;;;;;;;;;;5007340;28;95188;-80
2024/01/07 00:02:42;;;;;;;2.88;2.55;;;;;;;;;;5019736;28;94392;-81
2024/01/07 00:05:08;;;;;;;2.95;2.60;;;;;;;;;;5017792;28;92052;-81
2024/01/07 00:07:35;;;;;;;2.92;2.33;;;;;;;;;;5019680;28;92366;-81
2024/01/07 00:10:02;;;;;;;5.72;2.40;;;;;;;;;;5023143;28;92084;-80
2024/01/07 00:12:29;;;;;;;3.70;2.80;;;;;;;;;;5014077;28;94458;-81
2024/01/07 00:14:55;;;;;;;6.05;2.65;;;;;;;;;;5013747;28;91977;-81
2024/01/07 00:17:23;;;;;;;5.43;2.75;;;;;;;;;;5007642;28;92314;-80
2024/01/07 00:19:49;;;;;;;2.67;2.47;;;;;;;;;;5012261;28;92293;-81
2024/01/07 00:22:16;;;;;;;2.97;2.63;;;;;;;;;;5021939;28;94144;-80
2024/01/07 00:24:42;;;;;;;3.08;2.78;;;;;;;;;;5002961;28;94561;-81
2024/01/07 00:27:09;;;;;;;2.13;2.00;;;;;;;;;;5001605;28;92377;-81
2024/01/07 00:29:36;;;;;;;2.58;2.33;;;;;;;;;;5005988;28;91668;-80
2024/01/07 00:32:02;;;;;;;2.58;2.38;;;;;;;;;;5002054;28;93499;-81
2024/01/07 00:34:29;;;;;;;2.80;2.60;;;;;;;;;;5007061;28;91944;-81
2024/01/07 00:36:55;;;;;;;3.30;2.58;;;;;;;;;;5002458;28;94857;-81
2024/01/07 00:39:22;;;;;;;4.30;3.00;;;;;;;;;;5001194;28;92432;-81
2024/01/07 00:41:49;;;;;;;3.42;2.45;;;;;;;;;;5012929;28;92474;-81
2024/01/07 00:44:16;;;;;;;3.40;2.60;;;;;;;;;;5001961;28;92284;-81
2024/01/07 00:46:42;;;;;;;3.63;2.83;;;;;;;;;;5005219;28;92282;-82
2024/01/07 00:49:14;;;;;;;2.65;2.45;;;;;;;;;;5001735;28;92655;-81
2024/01/07 00:51:40;;;;;;;2.70;2.20;;;;;;;;;;5000142;28;95506;-81
2024/01/07 00:54:07;;;;;;;2.30;2.15;;;;;;;;;;5011020;28;94576;-80
2024/01/07 00:56:33;;;;;;;2.67;2.40;;;;;;;;;;5015626;28;93205;-81
2024/01/07 00:59:01;;;;;;;2.33;2.08;;;;;;;;;;5013627;28;94394;-80
2024/01/07 01:01:27;;;;;;;2.22;2.10;;;;;;;;;;5013824;28;94841;-80
2024/01/07 01:03:57;;;;;;;1.90;1.80;;;;;;;;;;5010323;28;95103;-80
2024/01/07 01:06:24;;;;;;;2.25;2.13;;;;;;;;;;5020666;28;94607;-81
2024/01/07 01:08:51;;;;;;;2.10;2.00;;;;;;;;;;5019026;28;94379;-80
2024/01/07 01:11:17;;;;;;;7.25;2.50;;;;;;;;;;5020209;28;93601;-80
2024/01/07 01:13:44;;;;;;;2.55;2.00;;;;;;;;;;5004593;28;95004;-81
2024/01/07 01:16:10;;;;;;;3.67;2.33;;;;;;;;;;5017500;28;92606;-81
2024/01/07 01:18:37;;;;;;;2.55;2.30;;;;;;;;;;5021387;28;93432;-81
2024/01/07 01:21:03;;;;;;;2.35;2.15;;;;;;;;;;5021088;28;93327;-80
2024/01/07 01:23:30;;;;;;;2.60;2.40;;;;;;;;;;5012207;28;92769;-80
2024/01/07 01:25:56;;;;;;;2.75;2.22;;;;;;;;;;5002492;28;94916;-81
2024/01/07 01:28:23;;;;;;;2.53;2.33;;;;;;;;;;5016760;28;94574;-81
2024/01/07 01:30:49;;;;;;;3.05;2.50;;;;;;;;;;5018230;28;94966;-81
2024/01/07 01:33:16;;;;;;;2.78;2.30;;;;;;;;;;5004529;28;95866;-80
2024/01/07 01:35:43;;;;;;;2.60;2.40;;;;;;;;;;5007227;28;92405;-81
2024/01/07 01:38:10;;;;;;;2.22;2.08;;;;;;;;;;5016156;28;93863;-81
2024/01/07 01:40:37;;;;;;;3.90;2.38;;;;;;;;;;5005198;28;92327;-81
2024/01/07 01:43:04;;;;;;;4.25;2.20;;;;;;;;;;4996763;28;92103;-81
2024/01/07 01:45:31;;;;;;;2.60;2.40;;;;;;;;;;5009312;28;93398;-80
2024/01/07 01:47:57;;;;;;;3.05;2.28;;;;;;;;;;5023522;28;92584;-80
2024/01/07 01:50:24;;;;;;;3.08;2.80;;;;;;;;;;5013546;28;94647;-80
2024/01/07 01:52:51;;;;;;;4.82;2.97;;;;;;;;;;5020914;28;95609;-80
2024/01/07 01:55:18;;;;;;;3.05;2.83;;;;;;;;;;5017094;28;92131;-80
2024/01/07 01:57:46;;;;;;;2.65;2.40;;;;;;;;;;4989573;28;94106;-80
2024/01/07 02:00:13;;;;;;;4.82;2.33;;;;;;;;;;5024257;28;94588;-80
2024/01/07 02:02:39;;;;;;;3.30;2.85;;;;;;;;;;5023134;28;92257;-80
2024/01/07 02:05:06;;;;;;;3.55;2.50;;;;;;;;;;5017296;28;95206;-80
2024/01/07 02:07:33;;;;;;;3.03;2.47;;;;;;;;;;5016346;28;91776;-80
2024/01/07 02:10:00;;;;;;;3.17;2.88;;;;;;;;;;5021332;28;92253;-80
2024/01/07 02:12:27;;;;;;;4.18;2.70;;;;;;;;;;5014554;28;91978;-80
2024/01/07 02:14:53;;;;;;;2.95;2.30;;;;;;;;;;5015143;28;95422;-80
2024/01/07 02:17:20;;;;;;;3.47;3.05;;;;;;;;;;5002220;28;94919;-80
2024/01/07 02:19:47;;;;;;;2.72;2.53;;;;;;;;;;5015895;28;92320;-80
2024/01/07 02:22:14;;;;;;;3.95;2.90;;;;;;;;;;5003041;28;92457;-80
2024/01/07 02:24:40;;;;;;;3.83;2.97;;;;;;;;;;5002299;28;93979;-80
2024/01/07 02:27:07;;;;;;;3.78;3.10;;;;;;;;;;5002066;28;95172;-80
2024/01/07 02:29:33;;;;;;;3.08;2.88;;;;;;;;;;5016172;28;92041;-80
2024/01/07 02:32:00;;;;;;;3.53;3.22;;;;;;;;;;5014030;28;94594;-81
2024/01/07 02:34:27;;;;;;;3.47;3.15;;;;;;;;;;5024062;28;93651;-80
2024/01/07 02:36:54;;;;;;;3.38;2.88;;;;;;;;;;5015122;28;92319;-80
2024/01/07 02:39:20;;;;;;;3.47;3.15;;;;;;;;;;5003755;28;94913;-80
2024/01/07 02:41:49;;;;;;;3.60;2.88;;;;;;;;;;5008435;28;95372;-80
2024/01/07 02:44:15;;;;;;;4.25;2.97;;;;;;;;;;5001038;28;93112;-80
2024/01/07 02:46:42;;;;;;;3.75;3.38;;;;;;;;;;5011182;28;95053;-80
2024/01/07 02:49:08;;;;;;;4.07;3.17;;;;;;;;;;5020378;28;92337;-80
2024/01/07 02:51:35;;;;;;;6.47;3.55;;;;;;;;;;5004832;28;92447;-80
2024/01/07 02:54:02;;;;;;;3.38;3.08;;;;;;;;;;5005343;28;94570;-81
2024/01/07 02:56:28;;;;;;;3.55;2.80;;;;;;;;;;5021422;28;91992;-80
2024/01/07 02:58:55;;;;;;;3.92;3.15;;;;;;;;;;5005807;28;92620;-80
2024/01/07 03:01:23;;;;;;;3.83;3.17;;;;;;;;;;5010467;28;91801;-80
2024/01/07 03:03:50;;;;;;;4.25;3.70;;;;;;;;;;4999069;28;96833;-80
2024/01/07 03:06:16;;;;;;;6.85;3.60;;;;;;;;;;5002221;28;93041;-80
2024/01/07 03:08:43;;;;;;;3.30;2.92;;;;;;;;;;5014341;28;92783;-80
2024/01/07 03:11:09;;;;;;;4.35;3.25;;;;;;;;;;5016008;28;92417;-80
2024/01/07 03:13:36;;;;;;;4.68;3.53;;;;;;;;;;5011071;28;92374;-80
2024/01/07 03:16:02;;;;;;;3.40;3.10;;;;;;;;;;4998906;28;92513;-80
2024/01/07 03:18:29;;;;;;;3.15;2.88;;;;;;;;;;4998240;28;94333;-80
2024/01/07 03:20:56;;;;;;;5.43;3.60;;;;;;;;;;5013821;28;92008;-80
2024/01/07 03:23:23;;;;;;;3.78;3.15;;;;;;;;;;5011834;28;96549;-80
2024/01/07 03:25:49;;;;;;;4.63;3.28;;;;;;;;;;5009090;28;92394;-80
2024/01/07 03:28:16;;;;;;;5.18;3.67;;;;;;;;;;5012746;28;94522;-80
2024/01/07 03:30:42;;;;;;;4.43;3.55;;;;;;;;;;5006611;28;92371;-80
2024/01/07 03:33:09;;;;;;;4.55;3.40;;;;;;;;;;5017292;28;92003;-80
2024/01/07 03:35:36;;;;;;;5.05;3.30;;;;;;;;;;5019389;28;92525;-80
2024/01/07 03:38:03;;;;;;;6.95;3.00;;;;;;;;;;5007597;28;94416;-80
2024/01/07 03:40:29;;;;;;;4.00;3.65;;;;;;;;;;5027257;28;93012;-80
2024/01/07 03:42:56;;;;;;;4.03;3.42;;;;;;;;;;5025391;28;91956;-80
2024/01/07 03:45:22;;;;;;;3.78;3.38;;;;;;;;;;5023885;28;92162;-80
2024/01/07 03:47:49;;;;;;;3.85;3.33;;;;;;;;;;5014297;28;92200;-80
2024/01/07 03:50:16;;;;;;;5.80;4.07;;;;;;;;;;5015931;28;92399;-81
2024/01/07 03:52:42;;;;;;;4.18;3.40;;;;;;;;;;5017946;28;94963;-80
2024/01/07 03:55:09;;;;;;;4.50;3.45;;;;;;;;;;5022543;28;97106;-79
2024/01/07 03:57:35;;;;;;;3.30;3.00;;;;;;;;;;5013415;28;93786;-80
2024/01/07 04:00:02;;;;;;;3.50;3.20;;;;;;;;;;5001979;28;93007;-80
2024/01/07 04:02:29;;;;;;;4.28;3.33;;;;;;;;;;5002762;28;92280;-80
2024/01/07 04:04:56;;;;;;;5.70;4.22;;;;;;;;;;5002767;28;92430;-80
2024/01/07 04:07:22;;;;;;;4.82;3.80;;;;;;;;;;5020235;28;92382;-80
2024/01/07 04:09:49;;;;;;;5.55;3.42;;;;;;;;;;5023106;28;92060;-80
2024/01/07 04:12:15;;;;;;;5.38;3.38;;;;;;;;;;5021962;28;94357;-80
2024/01/07 04:14:43;;;;;;;3.85;3.33;;;;;;;;;;5011922;28;92369;-80
2024/01/07 04:17:09;;;;;;;4.82;3.90;;;;;;;;;;5003796;28;97417;-80
2024/01/07 04:19:36;;;;;;;4.32;3.50;;;;;;;;;;5018927;28;94001;-80
2024/01/07 04:22:03;;;;;;;5.90;3.28;;;;;;;;;;5009014;28;92553;-80
2024/01/07 04:24:29;;;;;;;5.13;3.35;;;;;;;;;;4990783;28;92399;-80
2024/01/07 04:26:56;;;;;;;6.55;3.67;;;;;;;;;;5010540;28;94631;-80
2024/01/07 04:29:22;;;;;;;4.30;3.22;;;;;;;;;;5006884;28;93029;-80
2024/01/07 04:31:49;;;;;;;5.45;3.38;;;;;;;;;;5015706;28;95941;-80
2024/01/07 04:34:15;;;;;;;4.00;3.60;;;;;;;;;;5009831;28;92112;-80
2024/01/07 04:36:42;;;;;;;5.22;3.60;;;;;;;;;;5000204;28;94457;-80
2024/01/07 04:39:09;;;;;;;3.42;2.97;;;;;;;;;;5005301;28;92894;-80
2024/01/07 04:41:37;;;;;;;5.43;3.65;;;;;;;;;;5013392;28;94705;-79
2024/01/07 04:44:04;;;;;;;3.45;3.15;;;;;;;;;;5004873;28;92903;-80
2024/01/07 04:46:33;;;;;;;3.25;3.00;;;;;;;;;;5005645;28;92953;-80
2024/01/07 04:48:59;;;;;;;4.47;3.75;;;;;;;;;;5016550;28;93307;-80
2024/01/07 04:51:26;;;;;;;5.43;4.05;;;;;;;;;;5011731;28;92068;-80
2024/01/07 04:53:52;;;;;;;8.55;3.70;;;;;;;;;;5004941;28;93447;-80
2024/01/07 04:56:19;;;;;;;3.75;3.33;;;;;;;;;;5006608;28;96061;-80
2024/01/07 04:58:45;;;;;;;4.15;3.20;;;;;;;;;;5000728;28;92214;-80
2024/01/07 05:01:12;;;;;;;4.78;3.78;;;;;;;;;;5003101;28;92395;-80
2024/01/07 05:03:38;;;;;;;6.28;3.83;;;;;;;;;;5003348;28;92394;-80
2024/01/07 05:06:07;;;;;;;4.82;3.65;;;;;;;;;;5018867;28;94820;-80
2024/01/07 05:08:34;;;;;;;8.15;3.63;;;;;;;;;;5009711;28;92130;-80
2024/01/07 05:11:00;;;;;;;5.68;3.22;;;;;;;;;;5010358;27;92721;-80
2024/01/07 05:13:27;;;;;;;5.80;3.60;;;;;;;;;;5013192;28;93981;-80
2024/01/07 05:15:53;;;;;;;4.10;3.13;;;;;;;;;;5018141;28;93182;-80
2024/01/07 05:18:24;;;;;;;5.13;3.38;;;;;;;;;;5019756;28;95658;-80
2024/01/07 05:20:51;;;;;;;8.52;3.53;;;;;;;;;;5020980;28;92304;-80
2024/01/07 05:23:18;;;;;;;3.45;3.10;;;;;;;;;;5013820;28;93117;-80
2024/01/07 05:25:45;;;;;;;4.68;2.92;;;;;;;;;;5023909;28;92422;-80
2024/01/07 05:28:12;;;;;;;5.00;3.22;;;;;;;;;;4998795;28;94134;-80
2024/01/07 05:30:40;;;;;;;4.50;3.03;;;;;;;;;;5008059;28;94857;-80
2024/01/07 05:33:07;;;;;;;5.35;3.40;;;;;;;;;;5016403;28;93878;-80
2024/01/07 05:35:34;;;;;;;3.95;3.38;;;;;;;;;;5007422;28;92404;-80
2024/01/07 05:38:01;;;;;;;3.75;2.78;;;;;;;;;;5008472;28;95573;-80
2024/01/07 05:40:27;;;;;;;4.75;3.22;;;;;;;;;;5000507;28;92605;-80
2024/01/07 05:42:54;;;;;;;4.47;3.08;;;;;;;;;;5005872;28;93317;-80
2024/01/07 05:45:20;;;;;;;5.70;3.10;;;;;;;;;;5004832;28;92132;-80
2024/01/07 05:47:46;;;;;;;3.33;2.90;;;;;;;;;;5002283;28;91906;-80
2024/01/07 05:50:15;;;;;;;3.95;3.00;;;;;;;;;;5015281;28;92388;-80
2024/01/07 05:52:42;;;;;;;4.30;2.78;;;;;;;;;;5010678;28;92300;-80
2024/01/07 05:55:08;;;;;;;3.88;3.10;;;;;;;;;;5015888;28;94470;-80
2024/01/07 05:57:35;;;;;;;2.80;2.60;;;;;;;;;;5009324;28;92406;-80
2024/01/07 06:00:02;;;;;;;3.10;2.80;;;;;;;;;;5009208;28;95081;-80
2024/01/07 06:02:38;;;;;;;4.13;3.25;;;;;;;;;;4995643;28;92964;-80
2024/01/07 06:05:05;;;;;;;2.83;2.60;;;;;;;;;;5001643;28;92623;-80
2024/01/07 06:07:31;;;;;;;3.38;2.63;;;;;;;;;;4997361;28;94399;-80
2024/01/07 06:09:58;;;;;;;2.50;2.25;;;;;;;;;;4997527;28;92319;-80
2024/01/07 06:12:25;;;;;;;2.80;2.58;;;;;;;;;;5002042;28;92001;-80
2024/01/07 06:14:52;;;;;;;4.07;3.03;;;;;;;;;;5001584;28;94071;-80
2024/01/07 06:17:18;;;;;;;3.33;3.03;;;;;;;;;;5000200;28;93589;-80
2024/01/07 06:19:44;;;;;;;4.30;3.03;;;;;;;;;;5010425;28;94928;-80
2024/01/07 06:22:12;;;;;;;4.97;3.35;;;;;;;;;;5010509;28;92397;-80
2024/01/07 06:24:38;;;;;;;3.28;2.97;;;;;;;;;;4997964;28;92444;-80
2024/01/07 06:27:05;;;;;;;3.47;3.17;;;;;;;;;;5005691;28;95781;-80
2024/01/07 06:29:31;;;;;;;4.15;2.95;;;;;;;;;;4996845;28;94442;-80
2024/01/07 06:31:58;;;;;;;5.10;2.50;;;;;;;;;;5009528;28;92854;-80
2024/01/07 06:34:24;;;;;;;3.17;2.70;;;;;;;;;;4998179;28;93119;-80
2024/01/07 06:36:52;;;;;;;2.90;2.63;;;;;;;;;;5004379;28;92889;-80
2024/01/07 06:39:18;;;;;;;4.13;3.00;;;;;;;;;;5001049;28;92373;-80
2024/01/07 06:41:45;;;;;;;4.13;2.90;;;;;;;;;;5006465;28;95064;-80
2024/01/07 06:44:12;;;;;;;3.08;2.80;;;;;;;;;;5002559;28;94721;-80
2024/01/07 06:46:38;;;;;;;3.05;2.72;;;;;;;;;;4996901;28;94477;-80
2024/01/07 06:49:05;;;;;;;3.35;2.95;;;;;;;;;;5007844;28;94266;-80
2024/01/07 06:51:31;;;;;;;3.28;2.40;;;;;;;;;;5012630;28;93488;-80
2024/01/07 06:53:58;;;;;;;3.78;2.85;;;;;;;;;;4997807;28;92510;-80
2024/01/07 06:56:24;;;;;;;4.93;2.60;;;;;;;;;;5010280;28;92380;-80
2024/01/07 06:58:51;;;;;;;2.78;2.47;;;;;;;;;;5001334;28;92427;-80
2024/01/07 07:01:24;;;;;;;3.00;2.70;;;;;;;;;;5018540;28;92141;-80
2024/01/07 07:03:50;;;;;;;4.82;2.90;;;;;;;;;;5012645;28;94365;-80
2024/01/07 07:06:18;;;;;;;3.53;2.85;;;;;;;;;;5006804;28;95716;-80
2024/01/07 07:08:45;;;;;;;4.50;2.53;;;;;;;;;;5013854;28;95429;-80
2024/01/07 07:11:11;;;;;;;2.53;2.33;;;;;;;;;;4999738;28;92368;-80
2024/01/07 07:13:38;;;;;;;4.47;3.05;;;;;;;;;;5012225;28;92532;-81
2024/01/07 07:16:05;;;;;;;3.38;2.75;;;;;;;;;;5009755;28;93071;-80
2024/01/07 07:18:32;;;;;;;3.53;2.90;;;;;;;;;;5007978;28;93618;-81
2024/01/07 07:20:59;;;;;;;3.38;2.38;;;;;;;;;;5001117;28;92227;-80
2024/01/07 07:23:26;;;;;;;2.63;2.28;;;;;;;;;;4982221;28;93944;-81
2024/01/07 07:25:52;;;;;;;2.47;1.77;;;;;;;;;;5016008;28;92687;-81
2024/01/07 07:28:19;;;;;;;3.05;2.53;;;;;;;;;;5010959;28;92283;-80
2024/01/07 07:30:45;;;;;;;2.83;2.50;;;;;;;;;;4998092;28;92290;-80
2024/01/07 07:33:17;;;;;;;3.90;2.30;;;;;;;;;;5004946;28;94811;-80
2024/01/07 07:35:44;;;;;;;2.58;2.28;;;;;;;;;;4997841;28;92461;-80
2024/01/07 07:38:10;;;;;;;2.95;2.50;;;;;;;;;;4996370;28;96048;-81
2024/01/07 07:40:37;;;;;;;4.97;2.67;;;;;;;;;;5000746;28;92404;-80
2024/01/07 07:43:03;;;;;;;2.42;2.15;;;;;;;;;;4996412;28;92489;-81
2024/01/07 07:45:30;;;;;;;3.53;2.80;;;;;;;;;;5005414;28;92382;-81
2024/01/07 07:47:56;;;;;;;3.50;2.38;;;;;;;;;;5005887;28;92474;-80
2024/01/07 07:50:23;;;;;;;3.50;2.72;;;;;;;;;;5011959;28;93028;-80
2024/01/07 07:52:50;;;;;;;3.33;2.97;;;;;;;;;;4993765;28;93588;-80
2024/01/07 07:55:16;;;;;;;2.83;2.45;;;;;;;;;;5020341;28;92638;-80
2024/01/07 07:57:42;;;;;;;3.30;2.90;;;;;;;;;;5007714;28;94842;-80
2024/01/07 08:00:12;;;;;;;2.90;2.30;;;;;;;;;;5004006;28;92267;-79
2024/01/07 08:02:39;;;;;;;2.60;2.40;;;;;;;;;;5015463;28;92970;-78
2024/01/07 08:05:06;;;;;;;10.10;2.65;;;;;;;;;;5003032;28;92944;-78
2024/01/07 08:07:33;;;;;;;4.15;2.97;;;;;;;;;;4997196;28;92441;-78
2024/01/07 08:09:59;;;;;;;2.78;2.38;;;;;;;;;;4995675;28;92528;-78
2024/01/07 08:12:26;;;;;;;5.68;2.72;;;;;;;;;;4997557;28;92437;-81
2024/01/07 08:14:53;;;;;;;2.90;2.40;;;;;;;;;;5011129;28;92562;-81
2024/01/07 08:17:19;;;;;;;2.92;2.30;;;;;;;;;;5007988;28;92454;-81
2024/01/07 08:19:46;;;;;;;2.88;2.28;;;;;;;;;;4998699;28;94251;-80
2024/01/07 08:22:14;;;;;;;3.85;2.17;;;;;;;;;;5009625;28;95478;-82
2024/01/07 08:24:41;;;;;;;3.88;2.47;;;;;;;;;;4983740;28;97163;-81
2024/01/07 08:27:08;;;;;;;5.10;2.03;;;;;;;;;;5011343;28;93300;-81
2024/01/07 08:29:35;;;;;;;2.08;1.98;;;;;;;;;;5000974;28;92569;-80
2024/01/07 08:32:02;;;;;;;2.40;2.22;;;;;;;;;;5007946;28;92937;-80
2024/01/07 08:34:28;;;;;;;1.92;1.83;;;;;;;;;;5000158;28;94795;-81
2024/01/07 08:36:55;;;;;;;2.67;1.88;;;;;;;;;;5010762;28;92285;-81
2024/01/07 08:39:22;;;;;;;2.28;2.10;;;;;;;;;;5012913;28;95801;-81
2024/01/07 08:41:48;;;;;;;2.67;2.15;;;;;;;;;;5015408;28;92561;-81
2024/01/07 08:44:15;;;;;;;2.28;2.03;;;;;;;;;;5006526;28;92317;-80
2024/01/07 08:46:41;;;;;;;8.75;1.98;;;;;;;;;;5001941;28;94697;-81
2024/01/07 08:49:08;;;;;;;2.95;2.38;;;;;;;;;;5004327;28;92361;-81
2024/01/07 08:51:35;;;;;;;2.60;1.83;;;;;;;;;;5017369;28;92616;-81
2024/01/07 08:54:01;;;;;;;2.05;1.85;;;;;;;;;;5030679;28;92839;-81
2024/01/07 08:56:28;;;;;;;6.30;2.05;;;;;;;;;;5007818;28;92393;-81
2024/01/07 08:58:54;;;;;;;6.38;1.75;;;;;;;;;;5020264;28;94394;-81
2024/01/07 09:01:21;;;;;;;3.67;2.00;;;;;;;;;;5009007;28;93547;-81
2024/01/07 09:03:47;;;;;;;3.88;1.80;;;;;;;;;;5012814;28;92253;-81
2024/01/07 09:06:14;;;;;;;3.15;1.70;;;;;;;;;;4999808;28;92356;-81
2024/01/07 09:08:42;;;;;;;2.90;1.88;;;;;;;;;;5007136;28;92480;-81
2024/01/07 09:11:11;;;;;;;6.00;1.90;;;;;;;;;;4994741;28;94624;-82
2024/01/07 09:13:37;;;;;;;1.98;1.73;;;;;;;;;;5003605;28;92630;-81
2024/01/07 09:16:09;;;;;;;1.70;1.60;;;;;;;;;;5005986;28;92262;-81
2024/01/07 09:18:35;;;;;;;2.10;1.85;;;;;;;;;;5014701;28;92579;-82
2024/01/07 09:21:02;;;;;;;2.08;1.98;;;;;;;;;;5006569;28;92470;-82
2024/01/07 09:23:29;;;;;;;3.42;1.80;;;;;;;;;;5002660;28;92742;-81
2024/01/07 09:25:56;;;;;;;2.90;1.83;;;;;;;;;;5007089;28;92498;-82
2024/01/07 09:28:22;;;;;;;2.45;1.90;;;;;;;;;;5005707;28;91656;-81
2024/01/07 09:30:49;;;;;;;1.98;1.67;;;;;;;;;;4999240;28;92356;-82
2024/01/07 09:33:15;;;;;;;4.32;1.90;;;;;;;;;;5003535;28;93226;-81
2024/01/07 09:35:43;;;;;;;4.00;1.83;;;;;;;;;;5003449;28;94874;-81
2024/01/07 09:38:10;;;;;;;2.30;2.00;;;;;;;;;;4999403;28;97055;-84
2024/01/07 09:40:39;;;;;;;1.92;1.73;;;;;;;;;;5014814;28;93915;-81
2024/01/07 09:43:05;;;;;;;5.38;1.70;;;;;;;;;;5010896;28;95143;-82
2024/01/07 09:45:32;;;;;;;5.10;2.00;;;;;;;;;;4998867;28;94656;-84
2024/01/07 09:47:59;;;;;;;3.33;2.40;;;;;;;;;;5011770;28;93322;-82
2024/01/07 09:50:26;;;;;;;2.47;2.13;;;;;;;;;;5005971;28;92430;-81
2024/01/07 09:52:54;;;;;;;3.53;2.47;;;;;;;;;;5013016;28;91951;-79
2024/01/07 09:55:31;;;;;;;2.55;1.83;;;;;;;;;;5017883;28;94114;-80
2024/01/07 09:57:57;;;;;;;6.90;1.90;;;;;;;;;;5007913;28;92414;-81
2024/01/07 10:00:25;;;;;;;2.35;1.73;;;;;;;;;;4999615;28;94712;-82
2024/01/07 10:02:52;;;;;;;3.75;2.22;;;;;;;;;;5015526;28;93932;-81
2024/01/07 10:05:20;;;;;;;4.15;2.17;;;;;;;;;;4985071;28;92502;-81
2024/01/07 10:07:46;;;;;;;3.40;1.98;;;;;;;;;;5003720;28;93429;-81
2024/01/07 10:10:13;;;;;;;2.08;1.60;;;;;;;;;;4996329;28;94050;-81
2024/01/07 10:12:40;;;;;;;6.05;1.63;;;;;;;;;;4997196;28;93311;-82
2024/01/07 10:15:07;;;;;;;2.45;1.60;;;;;;;;;;4997641;28;93051;-81
2024/01/07 10:17:33;;;;;;;2.60;1.52;;;;;;;;;;5011226;28;91928;-81
2024/01/07 10:20:00;;;;;;;4.20;1.65;;;;;;;;;;5003147;28;92266;-81
2024/01/07 10:22:27;;;;;;;2.60;1.48;;;;;;;;;;5002757;28;92301;-82
2024/01/07 10:24:54;;;;;;;5.18;1.25;;;;;;;;;;5009065;28;94881;-81
2024/01/07 10:27:22;;;;;;;2.70;1.35;;;;;;;;;;5010806;28;95122;-81
2024/01/07 10:29:50;;;;;;;2.65;1.55;;;;;;;;;;5005954;28;92541;-81
2024/01/07 10:32:18;;;;;;;2.90;1.45;;;;;;;;;;5009552;28;94501;-80
2024/01/07 10:34:46;;;;;;;9.13;1.70;;;;;;;;;;5006445;28;92305;-82
2024/01/07 10:37:13;;;;;;;2.40;1.40;;;;;;;;;;5009597;28;92995;-80
2024/01/07 10:39:40;;;;;;;10.38;1.70;;;;;;;;;;5009679;28;92264;-81
2024/01/07 10:42:07;;;;;;;4.60;1.42;;;;;;;;;;4995287;28;94830;-79
2024/01/07 10:44:35;;;;;;;1.33;1.17;;;;;;;;;;5007438;28;92567;-80
2024/01/07 10:47:05;;;;;;;7.28;1.50;;;;;;;;;;5004048;28;95008;-80
2024/01/07 10:49:32;;;;;;;3.97;1.42;;;;;;;;;;5008572;28;94856;-81
2024/01/07 10:52:04;;;;;;;3.95;1.73;;;;;;;;;;5006272;28;92927;-81
2024/01/07 10:54:33;;;;;;;1.80;1.20;;;;;;;;;;4995107;28;94689;-81
2024/01/07 10:57:18;;;;;;;5.38;1.40;;;;;;;;;;5011731;28;92790;-82
2024/01/07 10:59:45;;;;;;;4.15;1.90;;;;;;;;;;5005392;28;92387;-79
2024/01/07 11:02:13;;;;;;;2.40;1.42;;;;;;;;;;5008374;28;92707;-83
2024/01/07 11:04:51;;;;;;;1.33;1.10;;;;;;;;;;5006473;28;92915;-83
2024/01/07 11:07:24;;;;;;;2.97;1.20;;;;;;;;;;5006301;28;93530;-82
2024/01/07 11:09:55;;;;;;;1.13;0.85;;;;;;;;;;5005149;28;93268;-83
2024/01/07 11:12:22;;;;;;;3.30;1.75;;;;;;;;;;5003357;28;95850;-82
2024/01/07 11:14:52;;;;;;;1.25;1.13;;;;;;;;;;4994675;28;94769;-83
2024/01/07 11:17:37;;;;;;;1.60;1.50;;;;;;;;;;5008392;28;93970;-83
2024/01/07 11:20:12;;;;;;;2.30;1.38;;;;;;;;;;5005685;28;92524;-80
2024/01/07 11:22:38;;;;;;;9.40;1.17;;;;;;;;;;5010364;28;93128;-81
2024/01/07 11:25:25;;;;;;;1.73;1.20;;;;;;;;;;5009248;28;92870;-82
2024/01/07 11:27:52;;;;;;;1.27;1.17;;;;;;;;;;5006482;28;92434;-81
2024/01/07 11:30:19;;;;;;;1.20;1.10;;;;;;;;;;5007351;28;92460;-83
2024/01/07 11:32:46;;;;;;;0.93;0.90;;;;;;;;;;5015606;28;91966;-80
2024/01/07 11:35:21;;;;;;;1.45;1.10;;;;;;;;;;5012568;28;92412;-79
2024/01/07 11:37:48;;;;;;;2.25;1.05;;;;;;;;;;5008819;28;92751;-80
2024/01/07 11:40:14;;;;;;;1.23;0.80;;;;;;;;;;5003980;28;95341;-81
2024/01/07 11:42:41;;;;;;;1.92;1.15;;;;;;;;;;4989098;28;95022;-79
2024/01/07 11:45:10;;;;;;;2.08;1.00;;;;;;;;;;5006649;28;92548;-81
2024/01/07 11:47:37;;;;;;;0.93;0.80;;;;;;;;;;5011767;28;93063;-80
2024/01/07 11:50:04;;;;;;;1.77;1.20;;;;;;;;;;5005786;28;92462;-80
2024/01/07 11:52:32;;;;;;;5.43;1.08;;;;;;;;;;5012402;28;92464;-81
2024/01/07 11:54:59;;;;;;;0.85;0.75;;;;;;;;;;5016776;28;92529;-79
2024/01/07 11:57:25;;;;;;;0.98;0.88;;;;;;;;;;5014022;28;92716;-79
2024/01/07 11:59:52;;;;;;;3.60;1.08;;;;;;;;;;5015663;28;93178;-80
2024/01/07 12:02:19;;;;;;;2.70;0.88;;;;;;;;;;5016059;28;92585;-79
2024/01/07 12:04:45;;;;;;;1.13;0.80;;;;;;;;;;5019482;28;94420;-80
2024/01/07 12:07:14;;;;;;;1.52;1.33;;;;;;;;;;5011157;28;92620;-80
2024/01/07 12:09:41;;;;;;;1.55;0.95;;;;;;;;;;5015308;28;92948;-80
2024/01/07 12:12:08;;;;;;;0.85;0.85;;;;;;;;;;5010592;28;92846;-80
2024/01/07 12:14:35;;;;;;;0.55;0.50;;;;;;;;;;5014284;28;94269;-80
2024/01/07 12:17:01;;;;;;;0.80;0.80;;;;;;;;;;5010876;28;92940;-80
2024/01/07 12:19:28;;;;;;;0.80;0.80;;;;;;;;;;5008449;28;92457;-80
2024/01/07 12:22:06;;;;;;;0.98;0.93;;;;;;;;;;5013763;28;92059;-80
2024/01/07 12:24:33;;;;;;;1.05;0.43;;;;;;;;;;5010012;28;94102;-80
2024/01/07 12:27:04;;;;;;;0.93;0.77;;;;;;;;;;5011413;28;93209;-80
2024/01/07 12:29:30;;;;;;;0.55;0.55;;;;;;;;;;5006081;28;95549;-80
2024/01/07 12:31:57;;;;;;;0.68;0.60;;;;;;;;;;5011606;28;95346;-80
2024/01/07 12:34:24;;;;;;;1.33;0.80;;;;;;;;;;5003492;28;93117;-79
2024/01/07 12:36:54;;;;;;;1.40;1.00;;;;;;;;;;5009171;28;92383;-79
2024/01/07 12:39:21;;;;;;;1.85;0.60;;;;;;;;;;4996816;28;92402;-79
2024/01/07 12:41:52;;;;;;;0.60;0.60;;;;;;;;;;5001952;28;92313;-80
2024/01/07 12:44:19;;;;;;;0.82;0.70;;;;;;;;;;4994259;28;92425;-79
2024/01/07 12:46:48;;;;;;;1.05;0.65;;;;;;;;;;4994047;28;92295;-79
2024/01/07 12:49:15;;;;;;;3.03;0.70;;;;;;;;;;4995952;28;92498;-80
2024/01/07 12:51:42;;;;;;;0.73;0.65;;;;;;;;;;5009482;28;92889;-80
2024/01/07 12:54:08;;;;;;;0.80;0.70;;;;;;;;;;5011416;28;94886;-79
2024/01/07 12:56:36;;;;;;;2.17;0.70;;;;;;;;;;4995671;28;92424;-79
2024/01/07 12:59:02;;;;;;;0.65;0.65;;;;;;;;;;5001947;28;92829;-79
2024/01/07 13:01:30;;;;;;;0.70;0.70;;;;;;;;;;4999001;28;93796;-79
2024/01/07 13:03:57;;;;;;;0.57;0.57;;;;;;;;;;4997455;28;92825;-79
2024/01/07 13:06:24;;;;;;;0.75;0.60;;;;;;;;;;5014384;28;92423;-79
2024/01/07 13:08:51;;;;;;;0.57;0.57;;;;;;;;;;4997358;28;92879;-79
2024/01/07 13:11:18;;;;;;;1.05;0.52;;;;;;;;;;5004144;28;92233;-79
2024/01/07 13:13:44;;;;;;;0.55;0.55;;;;;;;;;;4993990;28;93087;-79
2024/01/07 13:16:11;;;;;;;1.45;0.60;;;;;;;;;;5009709;28;93894;-80
2024/01/07 13:18:38;;;;;;;1.95;0.70;;;;;;;;;;4991801;28;95702;-79
2024/01/07 13:21:06;;;;;;;0.82;0.50;;;;;;;;;;5009760;28;93281;-79
2024/01/07 13:23:33;;;;;;;3.28;0.65;;;;;;;;;;4996926;28;92493;-79
2024/01/07 13:26:02;;;;;;;0.63;0.60;;;;;;;;;;4996286;28;93108;-79
2024/01/07 13:28:28;;;;;;;0.38;0.38;;;;;;;;;;4998518;28;93036;-80
2024/01/07 13:30:55;;;;;;;1.48;0.60;;;;;;;;;;5005020;28;92406;-79
2024/01/07 13:33:22;;;;;;;0.43;0.43;;;;;;;;;;4999657;28;92622;-78
2024/01/07 13:35:49;;;;;;;0.65;0.55;;;;;;;;;;4998986;28;94781;-78
2024/01/07 13:38:16;;;;;;;3.22;0.50;;;;;;;;;;5009840;28;93524;-80
2024/01/07 13:40:42;;;;;;;1.02;0.70;;;;;;;;;;5011494;28;93238;-80
2024/01/07 13:43:09;;;;;;;0.50;0.40;;;;;;;;;;4998774;28;94783;-81
2024/01/07 13:45:36;;;;;;;2.00;0.63;;;;;;;;;;5004364;28;92445;-79
2024/01/07 13:48:03;;;;;;;1.15;0.60;;;;;;;;;;4996348;28;92970;-80
2024/01/07 13:50:30;;;;;;;3.47;0.70;;;;;;;;;;4995601;28;92488;-78
2024/01/07 13:52:56;;;;;;;0.32;0.32;;;;;;;;;;4992009;28;92989;-79
2024/01/07 13:55:23;;;;;;;0.95;0.70;;;;;;;;;;5000957;28;92866;-79
2024/01/07 13:57:50;;;;;;;0.30;0.30;;;;;;;;;;5000276;28;92307;-79
2024/01/07 14:00:18;;;;;;;0.60;0.57;;;;;;;;;;5006795;28;92563;-79
2024/01/07 14:02:45;;;;;;;0.50;0.45;;;;;;;;;;5002361;28;92530;-76
2024/01/07 14:05:12;;;;;;;3.45;0.32;;;;;;;;;;5002522;28;94209;-80
2024/01/07 14:07:39;;;;;;;1.15;0.57;;;;;;;;;;4998284;28;94896;-81
2024/01/07 14:10:07;;;;;;;0.60;0.60;;;;;;;;;;5008095;28;95442;-80
2024/01/07 14:12:33;;;;;;;0.63;0.63;;;;;;;;;;5004832;28;94662;-80
2024/01/07 14:15:00;;;;;;;4.25;0.93;;;;;;;;;;4999449;28;94337;-79
2024/01/07 14:17:27;;;;;;;2.92;0.50;;;;;;;;;;4996652;28;93755;-80
2024/01/07 14:19:53;;;;;;;0.52;0.40;;;;;;;;;;4994887;28;94611;-80
2024/01/07 14:22:20;;;;;;;0.45;0.45;;;;;;;;;;4996212;28;92577;-80
2024/01/07 14:24:47;;;;;;;1.10;0.50;;;;;;;;;;5000267;28;92657;-80
2024/01/07 14:27:14;;;;;;;0.50;0.47;;;;;;;;;;4995916;28;92530;-80
2024/01/07 14:29:41;;;;;;;2.78;0.30;;;;;;;;;;5009472;28;93240;-80
2024/01/07 14:32:08;;;;;;;0.95;0.50;;;;;;;;;;4997619;28;97038;-79
2024/01/07 14:34:37;;;;;;;4.78;0.80;;;;;;;;;;5008175;28;92304;-80
2024/01/07 14:37:04;;;;;;;0.40;0.40;;;;;;;;;;5007055;28;92437;-80
2024/01/07 14:39:30;;;;;;;0.60;0.35;;;;;;;;;;4997758;28;94109;-79
2024/01/07 14:41:57;;;;;;;1.17;0.43;;;;;;;;;;4994739;28;92359;-80